Time;durP1;ratioP1;P1;durP2;ratioP2;P2;SDS_P1;SDS_P2;PMS_P1;PMS_P2;Temp;Humidity;BMP_temperature;BMP_pressure;BME280_temperature;BME280_humidity;BME280_pressure;Samples;Min_cycle;Max_cycle;Signal;HPM_P1;HPM_P2
2022/05/09 00:02:31;;;;;;;0.63;0.53;;;;;;;;;;5037903;28;20229;-56
2022/05/09 00:05:24;;;;;;;0.60;0.60;;;;;;;;;;5031874;28;20301;-57
2022/05/09 00:08:11;;;;;;;0.63;0.63;;;;;;;;;;5032362;28;20211;-57
2022/05/09 00:10:58;;;;;;;0.73;0.60;;;;;;;;;;5037794;28;20316;-57
2022/05/09 00:13:45;;;;;;;0.70;0.70;;;;;;;;;;5037799;28;20263;-57
2022/05/09 00:16:34;;;;;;;0.70;0.70;;;;;;;;;;5031934;28;20672;-57
2022/05/09 00:19:21;;;;;;;0.50;0.50;;;;;;;;;;5029453;28;20846;-57
2022/05/09 00:22:10;;;;;;;0.47;0.47;;;;;;;;;;5030031;28;20375;-56
2022/05/09 00:25:00;;;;;;;0.60;0.60;;;;;;;;;;5029463;28;20396;-56
2022/05/09 00:27:47;;;;;;;0.63;0.63;;;;;;;;;;5031149;28;20222;-56
2022/05/09 00:30:34;;;;;;;0.60;0.60;;;;;;;;;;5031808;28;20300;-57
2022/05/09 00:33:21;;;;;;;0.57;0.57;;;;;;;;;;5030891;28;20239;-56
2022/05/09 00:36:08;;;;;;;0.60;0.60;;;;;;;;;;5031225;28;20370;-56
2022/05/09 00:38:58;;;;;;;0.60;0.60;;;;;;;;;;5027999;28;20297;-57
2022/05/09 00:41:45;;;;;;;0.70;0.70;;;;;;;;;;5030481;28;20227;-57
2022/05/09 00:44:32;;;;;;;0.67;0.67;;;;;;;;;;5034014;28;20325;-56
2022/05/09 00:47:20;;;;;;;0.53;0.50;;;;;;;;;;5035198;28;20238;-57
2022/05/09 00:50:10;;;;;;;0.73;0.73;;;;;;;;;;5031814;28;20242;-56
2022/05/09 00:53:02;;;;;;;0.80;0.80;;;;;;;;;;5031647;28;20234;-57
2022/05/09 00:55:55;;;;;;;0.50;0.50;;;;;;;;;;5029595;28;20249;-57
2022/05/09 00:58:46;;;;;;;0.73;0.73;;;;;;;;;;5026562;28;20669;-57
2022/05/09 01:01:33;;;;;;;0.60;0.60;;;;;;;;;;5031026;28;20207;-57
2022/05/09 01:04:24;;;;;;;1.40;0.60;;;;;;;;;;5028729;28;20209;-56
2022/05/09 01:07:11;;;;;;;0.50;0.50;;;;;;;;;;5031597;28;20233;-57
2022/05/09 01:09:58;;;;;;;0.50;0.50;;;;;;;;;;5029022;28;20305;-56
2022/05/09 01:12:47;;;;;;;0.50;0.50;;;;;;;;;;5032315;28;20204;-57
2022/05/09 01:15:34;;;;;;;1.37;0.80;;;;;;;;;;5027196;28;20238;-57
2022/05/09 01:18:21;;;;;;;0.70;0.70;;;;;;;;;;5030968;28;20204;-56
2022/05/09 01:21:28;;;;;;;0.63;0.63;;;;;;;;;;5031884;28;20586;-56
2022/05/09 01:24:18;;;;;;;1.60;0.63;;;;;;;;;;5026899;28;20723;-57
2022/05/09 01:27:06;;;;;;;0.50;0.50;;;;;;;;;;5039441;28;20294;-56
2022/05/09 01:29:57;;;;;;;0.80;0.80;;;;;;;;;;5028968;28;20293;-56
2022/05/09 01:32:47;;;;;;;0.90;0.50;;;;;;;;;;5030924;28;20202;-56
2022/05/09 01:35:39;;;;;;;0.57;0.57;;;;;;;;;;5031507;28;20262;-56
2022/05/09 01:38:31;;;;;;;0.67;0.67;;;;;;;;;;5033424;28;20216;-57
2022/05/09 01:41:18;;;;;;;0.50;0.50;;;;;;;;;;5026475;28;20249;-56
2022/05/09 01:44:07;;;;;;;0.60;0.60;;;;;;;;;;5030489;28;20281;-57
2022/05/09 01:49:59;;;;;;;0.53;0.53;;;;;;;;;;5030354;28;20246;-56
2022/05/09 01:52:46;;;;;;;0.60;0.60;;;;;;;;;;5031115;28;20222;-57
2022/05/09 01:55:34;;;;;;;0.50;0.50;;;;;;;;;;5033203;28;20198;-56
2022/05/09 01:58:21;;;;;;;0.53;0.53;;;;;;;;;;5029105;28;20245;-56
2022/05/09 02:01:09;;;;;;;0.70;0.70;;;;;;;;;;5027326;28;20238;-56
2022/05/09 02:03:56;;;;;;;0.70;0.70;;;;;;;;;;5029432;28;20540;-57
2022/05/09 02:06:43;;;;;;;0.70;0.70;;;;;;;;;;5029033;28;20676;-56
2022/05/09 02:09:30;;;;;;;0.60;0.60;;;;;;;;;;5031336;28;20237;-56
2022/05/09 02:12:20;;;;;;;0.43;0.43;;;;;;;;;;5029211;28;20659;-56
2022/05/09 02:15:08;;;;;;;0.50;0.50;;;;;;;;;;5028948;28;20266;-56
2022/05/09 02:17:55;;;;;;;0.53;0.53;;;;;;;;;;5029058;28;20208;-56
2022/05/09 02:20:42;;;;;;;1.20;0.70;;;;;;;;;;5028738;28;20214;-56
2022/05/09 02:23:29;;;;;;;0.40;0.40;;;;;;;;;;5029166;28;20270;-57
2022/05/09 02:26:16;;;;;;;0.60;0.60;;;;;;;;;;5032629;28;20217;-56
2022/05/09 02:29:04;;;;;;;1.27;0.47;;;;;;;;;;5031859;28;20288;-57
2022/05/09 02:31:51;;;;;;;0.50;0.50;;;;;;;;;;5031607;28;20706;-56
2022/05/09 02:34:38;;;;;;;0.60;0.60;;;;;;;;;;5034491;28;20218;-56
2022/05/09 02:37:25;;;;;;;0.47;0.47;;;;;;;;;;5031904;28;20206;-56
2022/05/09 02:40:12;;;;;;;0.83;0.40;;;;;;;;;;5030610;28;20246;-56
2022/05/09 02:42:59;;;;;;;0.70;0.70;;;;;;;;;;5030482;28;20316;-56
2022/05/09 02:45:48;;;;;;;0.50;0.50;;;;;;;;;;5032867;28;20272;-56
2022/05/09 02:48:37;;;;;;;0.60;0.60;;;;;;;;;;5028796;28;20722;-56
2022/05/09 02:51:24;;;;;;;0.70;0.70;;;;;;;;;;5028330;28;20350;-56
2022/05/09 02:54:11;;;;;;;0.50;0.50;;;;;;;;;;5032254;28;20317;-56
2022/05/09 02:56:58;;;;;;;0.50;0.50;;;;;;;;;;5031660;28;20784;-56
2022/05/09 02:59:45;;;;;;;0.77;0.77;;;;;;;;;;5031634;28;20293;-56
2022/05/09 03:02:33;;;;;;;0.60;0.60;;;;;;;;;;5036626;28;20264;-56
2022/05/09 03:05:20;;;;;;;0.57;0.57;;;;;;;;;;5036014;28;20219;-56
2022/05/09 03:08:08;;;;;;;0.87;0.50;;;;;;;;;;5037490;28;20694;-57
2022/05/09 03:10:55;;;;;;;0.60;0.60;;;;;;;;;;5033641;28;20481;-56
2022/05/09 03:13:42;;;;;;;0.50;0.50;;;;;;;;;;5033995;28;20232;-56
2022/05/09 03:16:29;;;;;;;2.10;0.80;;;;;;;;;;5036208;28;20256;-57
2022/05/09 03:19:18;;;;;;;0.50;0.50;;;;;;;;;;5035842;28;20253;-57
2022/05/09 03:22:06;;;;;;;0.60;0.60;;;;;;;;;;5034072;28;20219;-56
2022/05/09 03:24:52;;;;;;;0.53;0.53;;;;;;;;;;5033869;28;20287;-56
2022/05/09 03:27:39;;;;;;;0.90;0.60;;;;;;;;;;5037174;28;20333;-56
2022/05/09 03:30:27;;;;;;;0.80;0.80;;;;;;;;;;5032367;28;20298;-56
2022/05/09 03:33:14;;;;;;;0.53;0.53;;;;;;;;;;5035476;28;20230;-56
2022/05/09 03:36:02;;;;;;;0.93;0.70;;;;;;;;;;5034042;28;20209;-56
2022/05/09 03:38:49;;;;;;;0.60;0.60;;;;;;;;;;5036981;28;20214;-56
2022/05/09 03:41:37;;;;;;;0.80;0.80;;;;;;;;;;5032781;28;20509;-57
2022/05/09 03:44:24;;;;;;;0.70;0.70;;;;;;;;;;5031209;28;20692;-56
2022/05/09 03:47:11;;;;;;;0.70;0.70;;;;;;;;;;5035419;28;20301;-56
2022/05/09 03:49:58;;;;;;;0.80;0.80;;;;;;;;;;5033355;28;20318;-56
2022/05/09 03:52:46;;;;;;;1.00;0.63;;;;;;;;;;5033352;28;20287;-56
2022/05/09 03:55:33;;;;;;;0.40;0.40;;;;;;;;;;5032170;28;20214;-56
2022/05/09 03:58:21;;;;;;;0.67;0.67;;;;;;;;;;5030088;28;20206;-56
2022/05/09 04:01:11;;;;;;;0.40;0.40;;;;;;;;;;5033815;28;20215;-56
2022/05/09 04:03:59;;;;;;;0.50;0.50;;;;;;;;;;5033318;28;20324;-56
2022/05/09 04:06:46;;;;;;;0.70;0.70;;;;;;;;;;5033799;28;20219;-56
2022/05/09 04:09:36;;;;;;;0.50;0.50;;;;;;;;;;5033322;28;20200;-56
2022/05/09 04:12:23;;;;;;;0.50;0.50;;;;;;;;;;5032080;28;20211;-56
2022/05/09 04:18:17;;;;;;;0.93;0.60;;;;;;;;;;5031295;28;20212;-57
2022/05/09 04:21:05;;;;;;;0.50;0.50;;;;;;;;;;5034103;28;20303;-56
2022/05/09 04:23:55;;;;;;;0.60;0.60;;;;;;;;;;5032427;28;20232;-56
2022/05/09 04:26:44;;;;;;;0.43;0.43;;;;;;;;;;5037547;28;20231;-56
2022/05/09 04:29:31;;;;;;;0.87;0.50;;;;;;;;;;5031447;28;20206;-56
2022/05/09 04:32:18;;;;;;;0.57;0.57;;;;;;;;;;5036434;28;20347;-57
2022/05/09 04:35:06;;;;;;;0.50;0.50;;;;;;;;;;5030222;28;20691;-56
2022/05/09 04:37:55;;;;;;;0.60;0.60;;;;;;;;;;5035355;28;20250;-57
2022/05/09 04:40:42;;;;;;;0.90;0.70;;;;;;;;;;5031376;28;20344;-56
2022/05/09 04:43:31;;;;;;;1.33;0.70;;;;;;;;;;5029397;28;20716;-56
2022/05/09 04:46:18;;;;;;;0.93;0.60;;;;;;;;;;5032371;28;20216;-56
2022/05/09 04:49:05;;;;;;;0.70;0.70;;;;;;;;;;5033811;28;20248;-56
2022/05/09 04:51:51;;;;;;;0.47;0.47;;;;;;;;;;5032381;28;20355;-56
2022/05/09 04:54:38;;;;;;;0.50;0.50;;;;;;;;;;5031163;28;20760;-56
2022/05/09 04:57:25;;;;;;;0.70;0.70;;;;;;;;;;5034175;28;20212;-56
2022/05/09 05:00:16;;;;;;;1.10;0.90;;;;;;;;;;5032725;28;20283;-56
2022/05/09 05:03:03;;;;;;;1.20;0.80;;;;;;;;;;5030996;28;20367;-56
2022/05/09 05:05:52;;;;;;;0.93;0.90;;;;;;;;;;5031300;28;20787;-56
2022/05/09 05:08:38;;;;;;;0.60;0.60;;;;;;;;;;5034029;28;20299;-56
2022/05/09 05:11:25;;;;;;;1.20;0.90;;;;;;;;;;5029145;28;20212;-56
2022/05/09 05:14:12;;;;;;;1.07;0.90;;;;;;;;;;5031832;28;20287;-57
2022/05/09 05:17:01;;;;;;;1.30;1.00;;;;;;;;;;5033274;28;20770;-56
2022/05/09 05:19:49;;;;;;;1.23;1.13;;;;;;;;;;5029971;28;20307;-56
2022/05/09 05:22:37;;;;;;;1.00;1.00;;;;;;;;;;5030746;28;20628;-56
2022/05/09 05:25:26;;;;;;;0.93;0.83;;;;;;;;;;5030508;28;20212;-56
2022/05/09 05:28:13;;;;;;;0.53;0.53;;;;;;;;;;5033090;28;20620;-56
2022/05/09 05:31:11;;;;;;;1.00;1.00;;;;;;;;;;5033542;28;20288;-56
2022/05/09 05:34:00;;;;;;;1.43;1.20;;;;;;;;;;5031589;28;20295;-56
2022/05/09 05:36:48;;;;;;;1.03;0.90;;;;;;;;;;5028407;28;20215;-56
2022/05/09 05:39:37;;;;;;;1.37;1.10;;;;;;;;;;5029145;28;20275;-57
2022/05/09 05:42:24;;;;;;;0.83;0.83;;;;;;;;;;5035288;28;20209;-56
2022/05/09 05:45:13;;;;;;;1.23;1.10;;;;;;;;;;5031219;28;20655;-56
2022/05/09 05:48:00;;;;;;;1.30;1.20;;;;;;;;;;5030424;28;20336;-56
2022/05/09 05:50:49;;;;;;;1.77;1.30;;;;;;;;;;5031592;28;20556;-56
2022/05/09 05:53:35;;;;;;;1.10;1.00;;;;;;;;;;5029668;28;20322;-56
2022/05/09 05:56:22;;;;;;;1.27;1.17;;;;;;;;;;5031795;28;20260;-56
2022/05/09 05:59:09;;;;;;;0.90;0.90;;;;;;;;;;5031540;28;20215;-56
2022/05/09 06:01:57;;;;;;;1.13;0.97;;;;;;;;;;5028154;28;20215;-56
2022/05/09 06:04:44;;;;;;;0.87;0.80;;;;;;;;;;5031484;28;20298;-56
2022/05/09 06:07:32;;;;;;;2.07;1.03;;;;;;;;;;5033926;28;20257;-56
2022/05/09 06:10:19;;;;;;;1.07;0.97;;;;;;;;;;5037344;28;20262;-56
2022/05/09 06:13:07;;;;;;;0.90;0.90;;;;;;;;;;5034444;28;20249;-56
2022/05/09 06:15:53;;;;;;;1.40;1.20;;;;;;;;;;5033572;28;20274;-56
2022/05/09 06:18:41;;;;;;;1.30;1.20;;;;;;;;;;5030882;28;20695;-56
2022/05/09 06:21:28;;;;;;;1.47;1.30;;;;;;;;;;5027504;28;20292;-56
2022/05/09 06:24:17;;;;;;;1.63;1.07;;;;;;;;;;5030997;28;20627;-56
2022/05/09 06:27:04;;;;;;;1.67;1.20;;;;;;;;;;5030194;28;20723;-56
2022/05/09 06:29:51;;;;;;;1.23;1.10;;;;;;;;;;5031856;28;20694;-57
2022/05/09 06:32:38;;;;;;;1.37;1.27;;;;;;;;;;5032475;28;20343;-56
2022/05/09 06:35:27;;;;;;;1.50;1.40;;;;;;;;;;5033174;28;20272;-56
2022/05/09 06:38:16;;;;;;;1.30;1.20;;;;;;;;;;5031407;28;20289;-56
2022/05/09 06:41:06;;;;;;;1.63;1.07;;;;;;;;;;5032576;28;20663;-56
2022/05/09 06:43:54;;;;;;;1.47;1.20;;;;;;;;;;5037828;28;20247;-57
2022/05/09 06:46:41;;;;;;;1.30;1.20;;;;;;;;;;5034610;28;20311;-57
2022/05/09 06:49:28;;;;;;;1.53;1.10;;;;;;;;;;5034261;28;20238;-55
2022/05/09 06:52:15;;;;;;;1.13;1.03;;;;;;;;;;5033872;28;20285;-59
2022/05/09 06:55:02;;;;;;;0.98;0.93;;;;;;;;;;5035947;28;20204;-55
2022/05/09 06:57:50;;;;;;;1.10;1.00;;;;;;;;;;5033778;28;20721;-54
2022/05/09 07:00:38;;;;;;;1.42;1.05;;;;;;;;;;5031895;28;20242;-54
2022/05/09 07:03:27;;;;;;;1.20;1.10;;;;;;;;;;5037080;28;20209;-54
2022/05/09 07:06:16;;;;;;;0.98;0.93;;;;;;;;;;5035118;28;20206;-56
2022/05/09 07:09:05;;;;;;;1.20;1.10;;;;;;;;;;5034754;28;20229;-56
2022/05/09 07:11:54;;;;;;;1.27;1.00;;;;;;;;;;5035125;28;20213;-56
2022/05/09 07:14:43;;;;;;;1.58;1.15;;;;;;;;;;5031969;28;20200;-56
2022/05/09 07:17:29;;;;;;;1.40;1.30;;;;;;;;;;5031849;28;20298;-56
2022/05/09 07:20:17;;;;;;;1.20;1.10;;;;;;;;;;5031141;28;20335;-55
2022/05/09 07:23:07;;;;;;;1.30;1.20;;;;;;;;;;5031465;28;20306;-55
2022/05/09 07:25:56;;;;;;;1.52;1.13;;;;;;;;;;5031661;28;20231;-55
2022/05/09 07:28:43;;;;;;;0.98;0.95;;;;;;;;;;5031896;28;20212;-54
2022/05/09 07:31:31;;;;;;;2.25;1.17;;;;;;;;;;5031769;28;20220;-54
2022/05/09 07:34:18;;;;;;;1.17;1.08;;;;;;;;;;5030215;28;20314;-55
2022/05/09 07:37:05;;;;;;;1.88;1.10;;;;;;;;;;5038273;28;20289;-54
2022/05/09 07:39:52;;;;;;;1.25;1.15;;;;;;;;;;5032760;28;20689;-54
2022/05/09 07:42:41;;;;;;;1.45;1.30;;;;;;;;;;5034039;28;20278;-54
2022/05/09 07:45:28;;;;;;;1.10;0.90;;;;;;;;;;5032239;28;20654;-55
2022/05/09 07:48:18;;;;;;;1.23;1.15;;;;;;;;;;5028641;28;20207;-55
2022/05/09 07:51:05;;;;;;;0.80;0.80;;;;;;;;;;5032098;28;20213;-56
2022/05/09 07:53:52;;;;;;;1.58;1.00;;;;;;;;;;5031343;28;20228;-55
2022/05/09 07:56:39;;;;;;;1.30;1.17;;;;;;;;;;5031166;28;20739;-55
2022/05/09 07:59:26;;;;;;;1.63;1.08;;;;;;;;;;5029957;28;20209;-55
2022/05/09 08:02:13;;;;;;;1.40;1.10;;;;;;;;;;5035320;28;20209;-55
2022/05/09 08:05:01;;;;;;;0.77;0.77;;;;;;;;;;5035826;28;20362;-55
2022/05/09 08:07:49;;;;;;;0.98;0.90;;;;;;;;;;5032492;28;20207;-55
2022/05/09 08:10:36;;;;;;;1.23;1.10;;;;;;;;;;5030533;28;20211;-55
2022/05/09 08:13:25;;;;;;;1.20;1.10;;;;;;;;;;5031918;28;20209;-55
2022/05/09 08:16:13;;;;;;;1.13;1.02;;;;;;;;;;5030056;28;20212;-55
2022/05/09 08:19:02;;;;;;;0.98;0.90;;;;;;;;;;5031660;28;20294;-56
2022/05/09 08:21:52;;;;;;;1.35;0.90;;;;;;;;;;5030057;28;20286;-55
2022/05/09 08:24:38;;;;;;;2.67;1.10;;;;;;;;;;5029042;28;20231;-53
2022/05/09 08:27:25;;;;;;;1.27;1.17;;;;;;;;;;5031277;28;20336;-54
2022/05/09 08:30:13;;;;;;;1.10;1.00;;;;;;;;;;5031584;28;20787;-54
2022/05/09 08:33:01;;;;;;;1.42;1.15;;;;;;;;;;5032682;28;20212;-54
2022/05/09 08:35:50;;;;;;;0.77;0.77;;;;;;;;;;5034973;28;20669;-54
2022/05/09 08:38:39;;;;;;;2.03;1.17;;;;;;;;;;5031132;28;20287;-54
2022/05/09 08:41:27;;;;;;;1.00;0.90;;;;;;;;;;5030962;28;20293;-54
2022/05/09 08:44:22;;;;;;;1.27;1.17;;;;;;;;;;5033892;28;20314;-53
2022/05/09 08:47:41;;;;;;;1.58;1.33;;;;;;;;;;5034477;28;20729;-55
2022/05/09 08:50:33;;;;;;;1.13;1.08;;;;;;;;;;5031019;28;20243;-56
2022/05/09 08:53:23;;;;;;;1.95;1.20;;;;;;;;;;5028507;28;20240;-55
2022/05/09 08:56:15;;;;;;;2.20;1.20;;;;;;;;;;5029754;28;20212;-55
2022/05/09 08:59:09;;;;;;;1.95;1.08;;;;;;;;;;5029659;28;20295;-55
2022/05/09 09:02:03;;;;;;;1.70;1.02;;;;;;;;;;5030502;28;20218;-55
2022/05/09 09:04:54;;;;;;;0.70;0.70;;;;;;;;;;5033354;28;20313;-54
2022/05/09 09:08:02;;;;;;;1.38;1.10;;;;;;;;;;5027400;28;20222;-56
2022/05/09 09:10:59;;;;;;;1.33;1.00;;;;;;;;;;5025312;28;20294;-56
2022/05/09 09:13:58;;;;;;;1.20;0.93;;;;;;;;;;5030060;28;20576;-55
2022/05/09 09:17:02;;;;;;;1.23;1.00;;;;;;;;;;5031708;28;20294;-57
2022/05/09 09:20:01;;;;;;;1.38;1.00;;;;;;;;;;5031296;28;20236;-56
2022/05/09 09:23:07;;;;;;;1.90;1.08;;;;;;;;;;5030251;28;20232;-56
2022/05/09 09:26:03;;;;;;;1.15;1.00;;;;;;;;;;5027916;28;20239;-55
2022/05/09 09:28:55;;;;;;;1.08;0.95;;;;;;;;;;5030743;28;20252;-55
2022/05/09 09:31:47;;;;;;;0.95;0.85;;;;;;;;;;5029323;28;20315;-55
2022/05/09 09:34:40;;;;;;;1.38;0.95;;;;;;;;;;5032980;28;20283;-55
2022/05/09 09:37:40;;;;;;;1.65;1.05;;;;;;;;;;5030271;28;20644;-56
2022/05/09 09:40:27;;;;;;;0.77;0.68;;;;;;;;;;5028910;28;20263;-55
2022/05/09 09:43:14;;;;;;;1.02;0.88;;;;;;;;;;5030426;28;20257;-55
2022/05/09 09:46:07;;;;;;;1.15;0.88;;;;;;;;;;5029681;28;20310;-56
2022/05/09 09:49:04;;;;;;;2.30;1.00;;;;;;;;;;5031876;28;20250;-55
2022/05/09 09:51:51;;;;;;;1.00;0.80;;;;;;;;;;5031210;28;20604;-55
2022/05/09 09:54:39;;;;;;;1.02;1.02;;;;;;;;;;5033279;28;20213;-56
2022/05/09 09:57:30;;;;;;;1.08;0.80;;;;;;;;;;5034165;28;20269;-55
2022/05/09 10:00:20;;;;;;;0.70;0.70;;;;;;;;;;5032661;28;20685;-56
2022/05/09 10:03:19;;;;;;;1.05;0.65;;;;;;;;;;5031361;28;20342;-55
2022/05/09 10:06:15;;;;;;;1.02;0.93;;;;;;;;;;5029874;28;20314;-56
2022/05/09 10:09:06;;;;;;;0.90;0.90;;;;;;;;;;5033480;28;20221;-56
2022/05/09 10:11:53;;;;;;;1.10;1.00;;;;;;;;;;5029910;28;20214;-56
2022/05/09 10:14:40;;;;;;;1.08;0.93;;;;;;;;;;5028926;28;20693;-56
2022/05/09 10:17:30;;;;;;;1.27;1.07;;;;;;;;;;5035196;28;20236;-56
2022/05/09 10:20:28;;;;;;;1.43;1.20;;;;;;;;;;5029511;28;20308;-56
2022/05/09 10:26:28;;;;;;;1.63;0.90;;;;;;;;;;5033037;28;20646;-54
2022/05/09 10:29:17;;;;;;;0.97;0.87;;;;;;;;;;5029586;28;20211;-55
2022/05/09 10:32:09;;;;;;;1.90;1.10;;;;;;;;;;5031578;28;20692;-55
2022/05/09 10:35:02;;;;;;;0.80;0.80;;;;;;;;;;5029111;28;20300;-55
2022/05/09 10:37:57;;;;;;;0.80;0.63;;;;;;;;;;5031442;28;20341;-56
2022/05/09 10:40:48;;;;;;;0.65;0.65;;;;;;;;;;5031801;28;20204;-55
2022/05/09 10:43:43;;;;;;;1.00;0.90;;;;;;;;;;5029691;28;20576;-56
2022/05/09 10:46:47;;;;;;;1.17;0.90;;;;;;;;;;5030802;28;20698;-55
2022/05/09 10:49:41;;;;;;;0.87;0.87;;;;;;;;;;5023297;28;20260;-56
2022/05/09 10:52:41;;;;;;;0.70;0.70;;;;;;;;;;5013962;28;20215;-55
2022/05/09 10:55:34;;;;;;;1.30;0.87;;;;;;;;;;5013495;28;20705;-55
2022/05/09 10:58:25;;;;;;;1.25;1.10;;;;;;;;;;5016911;28;20707;-55
2022/05/09 11:01:18;;;;;;;0.70;0.70;;;;;;;;;;5015910;28;20217;-55
2022/05/09 11:04:05;;;;;;;0.97;0.63;;;;;;;;;;5019688;28;20252;-56
2022/05/09 11:07:00;;;;;;;0.70;0.70;;;;;;;;;;5012216;28;20274;-56
2022/05/09 11:09:58;;;;;;;0.73;0.70;;;;;;;;;;5018810;28;20340;-56
2022/05/09 11:12:59;;;;;;;0.70;0.70;;;;;;;;;;5013892;28;20284;-55
2022/05/09 11:15:58;;;;;;;0.60;0.60;;;;;;;;;;5017859;28;20211;-55
2022/05/09 11:19:13;;;;;;;0.77;0.77;;;;;;;;;;5014244;28;20253;-55
2022/05/09 11:22:07;;;;;;;0.80;0.80;;;;;;;;;;5014763;28;20207;-56
2022/05/09 11:25:07;;;;;;;2.13;0.90;;;;;;;;;;5019875;28;20232;-55
2022/05/09 11:28:07;;;;;;;0.97;0.80;;;;;;;;;;5017677;28;20287;-55
2022/05/09 11:31:02;;;;;;;0.87;0.70;;;;;;;;;;5022715;28;20425;-55
2022/05/09 11:34:01;;;;;;;1.07;0.97;;;;;;;;;;5021158;28;20342;-55
2022/05/09 11:37:04;;;;;;;0.90;0.90;;;;;;;;;;5018440;28;20295;-55
2022/05/09 11:40:01;;;;;;;1.17;1.07;;;;;;;;;;5014314;28;20219;-56
2022/05/09 11:46:24;;;;;;;0.80;0.80;;;;;;;;;;5019158;28;20278;-55
2022/05/09 11:49:26;;;;;;;0.70;0.70;;;;;;;;;;5025747;28;20305;-56
2022/05/09 11:52:23;;;;;;;0.63;0.63;;;;;;;;;;5037406;28;20216;-55
2022/05/09 11:55:13;;;;;;;0.97;0.90;;;;;;;;;;5032081;28;20226;-55
2022/05/09 11:58:04;;;;;;;1.33;1.20;;;;;;;;;;5035768;28;20206;-56
2022/05/09 12:00:53;;;;;;;1.67;0.90;;;;;;;;;;5022948;28;20227;-55
2022/05/09 12:04:04;;;;;;;1.07;0.90;;;;;;;;;;5034260;28;20671;-55
2022/05/09 12:06:51;;;;;;;0.93;0.87;;;;;;;;;;5029250;28;20231;-57
2022/05/09 12:10:03;;;;;;;1.63;1.10;;;;;;;;;;5031963;28;20253;-56
2022/05/09 12:12:55;;;;;;;0.90;0.90;;;;;;;;;;5033095;28;20333;-56
2022/05/09 12:15:47;;;;;;;1.00;0.83;;;;;;;;;;5030443;28;20215;-56
2022/05/09 12:18:52;;;;;;;2.13;1.07;;;;;;;;;;5034718;28;20752;-56
2022/05/09 12:21:39;;;;;;;1.50;1.10;;;;;;;;;;5029763;28;20257;-55
2022/05/09 12:24:32;;;;;;;1.30;1.20;;;;;;;;;;5032133;28;20303;-55
2022/05/09 12:27:46;;;;;;;1.37;1.27;;;;;;;;;;5032526;28;20250;-56
2022/05/09 12:30:43;;;;;;;1.00;1.00;;;;;;;;;;5032142;28;20207;-55
2022/05/09 12:33:37;;;;;;;1.63;1.00;;;;;;;;;;5037484;28;20217;-55
2022/05/09 12:36:26;;;;;;;1.20;1.10;;;;;;;;;;5032893;28;20207;-55
2022/05/09 12:39:16;;;;;;;1.20;1.10;;;;;;;;;;5031356;28;20291;-55
2022/05/09 12:42:11;;;;;;;1.00;1.00;;;;;;;;;;5031235;28;20532;-56
2022/05/09 12:45:04;;;;;;;1.40;1.10;;;;;;;;;;5030942;28;20220;-55
2022/05/09 12:47:51;;;;;;;1.63;1.00;;;;;;;;;;5034996;28;20203;-55
2022/05/09 12:50:43;;;;;;;1.30;1.17;;;;;;;;;;5010910;28;20219;-67
2022/05/09 12:53:32;;;;;;;0.80;0.80;;;;;;;;;;5010841;28;20226;-56
2022/05/09 12:56:21;;;;;;;2.47;1.00;;;;;;;;;;5012537;28;20284;-56
2022/05/09 12:59:11;;;;;;;0.87;0.87;;;;;;;;;;5009959;28;20204;-56
2022/05/09 13:02:01;;;;;;;1.50;1.10;;;;;;;;;;5013261;28;20695;-55
2022/05/09 13:04:50;;;;;;;1.30;1.10;;;;;;;;;;5011841;28;20738;-55
2022/05/09 13:08:00;;;;;;;1.43;1.00;;;;;;;;;;5010324;28;20296;-56
2022/05/09 13:10:50;;;;;;;1.07;0.90;;;;;;;;;;5009602;28;20696;-56
2022/05/09 13:13:38;;;;;;;1.30;1.10;;;;;;;;;;5015348;28;20205;-55
2022/05/09 13:16:32;;;;;;;1.17;1.00;;;;;;;;;;5015007;28;20210;-56
2022/05/09 13:19:20;;;;;;;1.20;0.93;;;;;;;;;;5018128;28;20685;-55
2022/05/09 13:22:08;;;;;;;1.27;1.17;;;;;;;;;;5011893;28;20303;-55
2022/05/09 13:24:56;;;;;;;1.23;1.17;;;;;;;;;;5011447;28;20267;-55
2022/05/09 13:27:46;;;;;;;1.13;1.10;;;;;;;;;;5012919;28;20254;-55
2022/05/09 13:30:36;;;;;;;0.97;0.97;;;;;;;;;;5010108;28;20297;-55
2022/05/09 13:33:25;;;;;;;0.80;0.80;;;;;;;;;;5012342;28;20346;-56
2022/05/09 13:36:13;;;;;;;1.47;1.17;;;;;;;;;;5011990;28;20642;-55
2022/05/09 13:38:59;;;;;;;0.87;0.87;;;;;;;;;;5009784;28;20210;-55
2022/05/09 13:41:48;;;;;;;1.43;1.00;;;;;;;;;;5008156;28;20295;-56
2022/05/09 13:44:35;;;;;;;1.00;1.00;;;;;;;;;;5012541;28;20214;-56
2022/05/09 13:47:25;;;;;;;1.57;1.10;;;;;;;;;;5010362;28;20318;-56
2022/05/09 13:50:14;;;;;;;0.70;0.70;;;;;;;;;;5026675;28;20275;-55
2022/05/09 13:53:04;;;;;;;1.27;1.17;;;;;;;;;;5032915;28;20264;-55
2022/05/09 13:55:51;;;;;;;1.10;1.00;;;;;;;;;;5032072;28;20291;-56
2022/05/09 13:58:40;;;;;;;1.23;1.13;;;;;;;;;;5030154;28;20291;-55
2022/05/09 14:01:36;;;;;;;1.00;1.00;;;;;;;;;;5028983;28;20272;-56
2022/05/09 14:04:24;;;;;;;2.97;0.80;;;;;;;;;;5033361;28;20294;-56
2022/05/09 14:10:26;;;;;;;1.67;1.30;;;;;;;;;;5035155;28;20215;-56
2022/05/09 14:13:25;;;;;;;0.87;0.83;;;;;;;;;;5037402;28;20252;-56
2022/05/09 14:16:22;;;;;;;1.37;1.27;;;;;;;;;;5030157;28;20280;-55
2022/05/09 14:19:28;;;;;;;1.27;1.17;;;;;;;;;;5027083;28;20211;-56
2022/05/09 14:22:16;;;;;;;0.80;0.80;;;;;;;;;;5022829;28;20623;-56
2022/05/09 14:31:37;;;;;;;2.43;1.20;;;;;;;;;;5031354;28;20206;-59
2022/05/09 14:34:37;;;;;;;0.67;0.67;;;;;;;;;;5031043;28;20214;-56
2022/05/09 14:37:33;;;;;;;1.17;0.93;;;;;;;;;;5030544;28;20694;-56
2022/05/09 14:40:24;;;;;;;0.70;0.70;;;;;;;;;;5028665;28;20943;-56
2022/05/09 14:43:29;;;;;;;0.80;0.80;;;;;;;;;;5030829;28;20695;-55
2022/05/09 14:46:16;;;;;;;1.33;0.93;;;;;;;;;;5029404;28;20285;-59
2022/05/09 14:49:10;;;;;;;0.80;0.80;;;;;;;;;;5028051;28;20320;-56
2022/05/09 14:52:03;;;;;;;1.27;1.17;;;;;;;;;;5027301;28;20320;-60
2022/05/09 14:57:25;;;;;;;1.00;1.00;;;;;;;;;;5030742;28;20267;-56
2022/05/09 14:58:03;;;;;;;1.80;1.13;;;;;;;;;;5032826;28;20210;-55
2022/05/09 15:00:59;;;;;;;1.50;0.83;;;;;;;;;;5035037;28;20207;-56
2022/05/09 15:03:48;;;;;;;1.50;0.90;;;;;;;;;;5033033;28;20213;-55
2022/05/09 15:06:36;;;;;;;1.50;1.07;;;;;;;;;;5032099;28;20279;-56
2022/05/09 15:09:23;;;;;;;1.47;0.83;;;;;;;;;;5033797;28;20245;-57
2022/05/09 15:12:14;;;;;;;0.63;0.60;;;;;;;;;;5033116;28;20639;-56
2022/05/09 15:15:01;;;;;;;1.50;1.17;;;;;;;;;;5036504;28;20684;-55
2022/05/09 15:17:48;;;;;;;1.23;0.90;;;;;;;;;;5032926;28;20240;-56
2022/05/09 15:20:35;;;;;;;0.80;0.80;;;;;;;;;;5033985;28;20284;-56
2022/05/09 15:23:23;;;;;;;0.80;0.80;;;;;;;;;;5035671;28;20644;-56
2022/05/09 15:26:13;;;;;;;0.80;0.80;;;;;;;;;;5037977;28;20692;-56
2022/05/09 15:29:01;;;;;;;1.20;1.10;;;;;;;;;;5033107;28;20210;-55
2022/05/09 15:31:50;;;;;;;1.20;1.10;;;;;;;;;;5032429;28;20933;-55
2022/05/09 15:34:37;;;;;;;1.30;1.20;;;;;;;;;;5035201;28;20589;-56
2022/05/09 15:37:24;;;;;;;1.67;1.30;;;;;;;;;;5036869;28;20260;-56
2022/05/09 15:40:13;;;;;;;1.13;1.10;;;;;;;;;;5031420;28;20206;-56
2022/05/09 15:43:05;;;;;;;1.63;1.10;;;;;;;;;;5034639;28;20682;-56
2022/05/09 15:45:56;;;;;;;1.40;1.00;;;;;;;;;;5032385;28;20309;-56
2022/05/09 15:48:46;;;;;;;1.37;1.10;;;;;;;;;;5033143;28;20349;-56
2022/05/09 15:51:36;;;;;;;0.80;0.80;;;;;;;;;;5033509;28;20719;-56
2022/05/09 15:54:24;;;;;;;1.10;1.10;;;;;;;;;;5035569;28;20245;-56
2022/05/09 15:57:15;;;;;;;1.17;0.97;;;;;;;;;;5032737;28;20210;-56
2022/05/09 16:00:06;;;;;;;1.10;1.00;;;;;;;;;;5033918;28;20249;-56
2022/05/09 16:02:55;;;;;;;1.20;0.97;;;;;;;;;;5031891;28;20355;-56
2022/05/09 16:11:52;;;;;;;1.90;1.30;;;;;;;;;;5036475;28;20207;-56
2022/05/09 16:14:45;;;;;;;1.40;1.00;;;;;;;;;;5030992;28;20204;-56
2022/05/09 16:17:33;;;;;;;0.90;0.90;;;;;;;;;;5034734;28;20208;-56
2022/05/09 16:20:20;;;;;;;0.83;0.83;;;;;;;;;;5032775;28;20292;-56
2022/05/09 16:23:07;;;;;;;1.10;1.00;;;;;;;;;;5037945;28;20219;-56
2022/05/09 16:26:01;;;;;;;0.80;0.80;;;;;;;;;;5029817;28;20319;-56
2022/05/09 16:28:48;;;;;;;1.00;0.90;;;;;;;;;;5033243;28;20205;-55
2022/05/09 16:31:37;;;;;;;0.93;0.93;;;;;;;;;;5028058;28;20223;-56
2022/05/09 16:34:26;;;;;;;1.10;1.07;;;;;;;;;;5031476;28;20213;-56
2022/05/09 16:37:13;;;;;;;1.30;1.00;;;;;;;;;;5033925;28;20677;-56
2022/05/09 16:40:01;;;;;;;1.17;0.90;;;;;;;;;;5033577;28;20254;-56
2022/05/09 16:42:51;;;;;;;1.20;1.10;;;;;;;;;;5032173;28;20624;-56
2022/05/09 16:45:38;;;;;;;0.93;0.83;;;;;;;;;;5031488;28;20200;-56
2022/05/09 16:48:26;;;;;;;0.80;0.80;;;;;;;;;;5031637;28;20204;-56
2022/05/09 16:51:13;;;;;;;1.13;1.03;;;;;;;;;;5030241;28;20362;-55
2022/05/09 16:54:00;;;;;;;1.07;1.03;;;;;;;;;;5033218;28;20785;-56
2022/05/09 16:56:47;;;;;;;0.90;0.90;;;;;;;;;;5033765;28;20201;-56
2022/05/09 16:59:43;;;;;;;0.70;0.70;;;;;;;;;;5031052;28;20240;-56
2022/05/09 17:02:30;;;;;;;1.60;0.97;;;;;;;;;;5030437;28;20216;-55
2022/05/09 17:05:20;;;;;;;0.90;0.90;;;;;;;;;;5031020;28;20348;-56
2022/05/09 17:08:07;;;;;;;0.90;0.90;;;;;;;;;;5030277;28;20315;-56
2022/05/09 17:10:54;;;;;;;1.00;1.00;;;;;;;;;;5030537;28;20625;-56
2022/05/09 17:13:41;;;;;;;0.90;0.80;;;;;;;;;;5033966;28;20215;-56
2022/05/09 17:16:29;;;;;;;0.70;0.70;;;;;;;;;;5037400;28;20736;-56
2022/05/09 17:19:15;;;;;;;0.90;0.90;;;;;;;;;;5032083;28;20788;-56
2022/05/09 17:22:05;;;;;;;0.70;0.70;;;;;;;;;;5027905;28;20295;-55
2022/05/09 17:24:52;;;;;;;1.13;1.10;;;;;;;;;;5029033;28;20663;-56
2022/05/09 17:27:39;;;;;;;0.90;0.80;;;;;;;;;;5028789;28;20362;-56
2022/05/09 17:30:29;;;;;;;0.80;0.80;;;;;;;;;;5031410;28;20202;-56